Private Wetterstation Nrnberg - Katzwang
Wetterdaten: Juni 2010
Datum Temp. A. Feuchte A. Luftdruck Regen Wind Richtung Taupunkt Windchill Windben
01.06.2010 12,6 C 84 % 1011 hPa 1,6 l/m 4,1 km/h W-NW 9,9 C 12,1 C 5,1 km/h
02.06.2010 12,5 C 87 % 1012 hPa 1,0 l/m 12,1 km/h W-NW 10,4 C 9,4 C 13,1 km/h
03.06.2010 13,2 C 91 % 1015 hPa 10,4 l/m 2,2 km/h W-NW 11,8 C 13,1 C 3,2 km/h
04.06.2010 17,3 C 69 % 1018 hPa 0,0 l/m 1,4 km/h W-NW 11,1 C 17,3 C 2,4 km/h
05.06.2010 20,5 C 60 % 1017 hPa 0,0 l/m 5,3 km/h O-NO 11,7 C 20,5 C 6,3 km/h
06.06.2010 23,4 C 60 % 1010 hPa 0,0 l/m 3,1 km/h O 14,4 C 23,3 C 4,1 km/h
07.06.2010 20,3 C 63 % 1011 hPa 0,0 l/m 4,3 km/h W-NW 12,8 C 19,8 C 5,3 km/h
08.06.2010 20,5 C 71 % 1007 hPa 7,3 l/m 2,0 km/h N-NO 14,1 C 20,5 C 3,0 km/h
09.06.2010 23,2 C 69 % 1005 hPa 0,0 l/m 6,7 km/h O 16,7 C 22,7 C 7,7 km/h
10.06.2010 26,3 C 62 % 1005 hPa 0,0 l/m 4,4 km/h O 17,8 C 26,3 C 5,4 km/h
11.06.2010 23,9 C 58 % 1008 hPa 0,0 l/m 1,7 km/h W-NW 14,8 C 23,9 C 2,7 km/h
12.06.2010 20,8 C 68 % 1010 hPa 0,0 l/m 1,7 km/h W-NW 14,5 C 20,8 C 2,7 km/h
13.06.2010 17,2 C 73 % 1012 hPa 0,5 l/m 3,9 km/h N-NO 12,1 C 16,5 C 4,9 km/h
14.06.2010 17,2 C 79 % 1013 hPa 0,0 l/m 4,0 km/h N-NO 13,4 C 17,2 C 4,9 km/h
15.06.2010 17,8 C 74 % 1016 hPa 0,0 l/m 6,2 km/h N-NO 12,8 C 17,4 C 7,2 km/h
16.06.2010 17,3 C 61 % 1015 hPa 0,0 l/m 9,1 km/h NO 9,6 C 16,0 C 10,1 km/h
17.06.2010 18,3 C 65 % 1012 hPa 0,0 l/m 7,1 km/h O 11,7 C 18,0 C 8,1 km/h
18.06.2010 16,2 C 86 % 1007 hPa 19,2 l/m 6,9 km/h N-NO 13,8 C 15,7 C 7,9 km/h
19.06.2010 13,3 C 69 % 1006 hPa 1,0 l/m 3,1 km/h W-NW 7,5 C 12,6 C 4,1 km/h
20.06.2010 14,0 C 69 % 1011 hPa 0,0 l/m 1,9 km/h N-NO 8,2 C 14,0 C 2,9 km/h
21.06.2010 14,4 C 68 % 1017 hPa 0,0 l/m 3,4 km/h W-NW 8,4 C 13,7 C 4,4 km/h
22.06.2010 16,1 C 63 % 1020 hPa 0,0 l/m 4,1 km/h N-NO 8,9 C 15,7 C 5,1 km/h
23.06.2010 17,4 C 63 % 1019 hPa 0,0 l/m 2,7 km/h NO 9,9 C 17,1 C 3,7 km/h
24.06.2010 20,3 C 59 % 1016 hPa 0,0 l/m 2,6 km/h N-NO 11,7 C 20,1 C 3,6 km/h
25.06.2010 19,5 C 72 % 1014 hPa 0,5 l/m 0,9 km/h O-NO 13,6 C 19,5 C 1,9 km/h
26.06.2010 21,4 C 63 % 1014 hPa 0,0 l/m 1,4 km/h N-NO 13,7 C 21,4 C 2,4 km/h
27.06.2010 22,4 C 59 % 1017 hPa 0,0 l/m 0,5 km/h N-NO 13,7 C 22,4 C 1,5 km/h
28.06.2010 24,0 C 57 % 1016 hPa 0,0 l/m 1,7 km/h NO 14,2 C 24,0 C 2,7 km/h
29.06.2010 25,3 C 52 % 1016 hPa 0,0 l/m 2,6 km/h W-NW 14,1 C 25,2 C 3,6 km/h
30.06.2010 24,7 C 57 % 1017 hPa 0,0 l/m 0,0 km/h W-NW 15,2 C 24,7 C 1,0 km/h
Min-Datum 23.06.10 28.06.10 09.06.10 8 Tage 01.06.10 - 23.06.10 01.06.10 01.06.10
Min-Zeit 05:30 15:00 17:30 - 01:10 - 05:30 00:40 01:10
Minimum 8,4 C 31 % 1004 hPa - 0,0 km/h - 5,9 C 2,5 C 1,0 km/h
Max-Datum 10.06.10 03.06.10 22.06.10 18.06.10 16.06.10 - 10.06.10 10.06.10 08.06.10
Max-Zeit 15:00 09:30 23:30 02:10 15:10 - 11:30 15:00 19:10
Maximum 32,3 C 93 % 1022 hPa 19,2 l/m 30,8 km/h
NO
- 20,2 C 32,3 C 61,2 km/h
N-NO
Durchschnitt 19,0 C 68 % 1013 hPa #41,4 l/m 3,7 km/h N-NO 12,4 C 18,7 C 4,7 km/h

Durchschnitt Minimum Temp.13,3 C
Durchschnitt Maximum Temp.23,9 C